VEAT/IXA METAR and TAF weather

Enter ICAO airport designator
Station Type Date Time Source
VEAT METAR 2022/05/25 01:30 UTC NOAA

VEAT 250130Z 00000KT 4000 BR SCT020 BKN100 27/24 Q1007 NOSIG


Station Type Date Time Source
VEAT Decoded METAR 2022/05/25 01:30 UTC NOAA

Agartala, India (VEAT) 23-53N 091-15E 16M
May 24, 2022 - 09:30 PM EDT / 2022.05.25 0130 UTC
Wind: Calm:0
Visibility: 2 mile(s):0
Sky conditions: mostly cloudy
Weather: mist
Temperature: 80 F (27 C)
Dew Point: 75 F (24 C)
Relative Humidity: 83%
Pressure (altimeter): 29.74 in. Hg (1007 hPa)
ob: VEAT 250130Z 00000KT 4000 BR SCT020 BKN100 27/24 Q1007 NOSIG
cycle: 1

Station Type Date Time Source
VEAT TAF 2022/05/24 12:00 UTC NOAA

TAF VEAT 241100Z 2412/2518 33003KT 4000 HZ FEW020 SCT100
TEMPO 2415/2419 3000 -TSRA SCT018 FEW030CB BKN100
BECMG 2422/2502 00000KT 1500 BR FEW020 SCT100
BECMG 2504/2508 18003KT 5000 HZ SCT018 SCT025
BECMG 2514/2518 00000KT 3000 BR FEW020 SCT100=

Example: see airport list